Aurora, NE

7:00 PM CST on February 05, 2016 (GMT -0600)
Aurora Municipal | | Change Station
CLOSE
Current Station
Airport
Location: Aurora,
Elevation: 1804 ft
Nearby Weather Stations

Elev 1804 ft 40.89 °N, 97.99 °W | Updated 25 minutes ago

Overcast
Overcast
34 °F
Feels Like 27 °F
N
9
Wind Variable Wind from West

Today
High -- | Low -- °F
--% Chance of Precip.
Yesterday
High -- | Low -- °F
Precip. -- in
Pressure 30.22 in
Visibility 10.0 miles
Clouds Scattered Clouds 3500 ft
Mostly Cloudy 4800 ft
Overcast 5000 ft
Windchill 27 °F
Dew Point 32 °F
Humidity 91%
Rainfall 0.00 in
Snow Depth Not available.
7:38 AM 5:53 PM
Waning Crescent, 8% visible
METAR KAUH 060035Z AUTO 28008KT 10SM SCT035 BKN048 OVC050 01/00 A3022 RMK AO2 T00111002
Pressure 30.22 in
Visibility 10.0 miles
Clouds Scattered Clouds 3500 ft
Mostly Cloudy 4800 ft
Overcast 5000 ft
Windchill 27 °F
Dew Point 32 °F
Humidity 91%
Rainfall 0.00 in
Snow Depth Not available.
7:38 AM 5:53 PM
Waning Crescent, 8% visible
METAR KAUH 060035Z AUTO 28008KT 10SM SCT035 BKN048 OVC050 01/00 A3022 RMK AO2 T00111002

10-Day Weather Forecast

Almanac

Astronomy

Feb. 05, 2016 Rise Set
Actual Time
Civil Twilight
Nautical Twilight
Astronomical Twilight
Moon
Length of Visible Light
Length of Day
Tomorrow will be .
, % of the Moon is Illuminated

Today's Extremes

State Highs State Lows

Community

WunderPhotos

Upload Photos

1,890,900 photos uploaded!

WunderBlog® & News

Nearby

Air Quality

  Air Quality AQ Index Pollutant
Not available.

Snow Depth

Station Depth Elevation

Earthquake Activity

City Distance Mag. Time & Date
Minimum magnitude displayed is 2.5.

Coastal Water Temperatures

Place Temperature

Stations

Nearby Weather Stations

Station Location Temp. Windchill Dew Point Humidity Wind Precip. Elev Updated Type
                   

Watches & Warnings

There are currently no watches in effect.